Accueil
METAR-TAF:

METAR-TAF

Aéroports :

Aéroport international du Caire

Le Caire, Égypte

latitude: 30-08N, longitude: 031-24E, altitude: 64 m

Observation

Le bulletin a été fait il y a 19 minutes, à 11:30 UTC
Vent 5 kt de nord
Température 17°C
Humidité 45%
Pression 1021 hPa
Visibilité 10 km ou plus
Nuages épars à une hauteur de 2500 ft

METAR: HECA 181130Z 36005KT 9999 SCT025 17/05 Q1021 NOSIG

Heure: 13:49 (11:49 UTC)

Prévision

Le bulletin a été fait il y a 49 minutes, à 11:00 UTC
Prévision valable du 18 à 12 UTC au 19 à 18 UTC
Vent 6 kt de nord-est
Visibilité 10 km ou plus
Quelques nuages à une hauteur de 2500 ft
Temporairement
du 19 à 00 UTC au 19 à 08 UTC
Visibilité: 4000 m
brume

TAF: HECA 181100Z 1812/1918 05006KT 9999 FEW025 TEMPO 1900/1908 4000 BR NSC

Observations et prévisions météorologiques de plus de 4000 aéroports (messages METAR et TAF).

Les stations disponibles sont représentées par des disques jaunes et rouges sur la carte.

Passer la souris dessus pour voir le nom de la station.

Cliquer dessus pour voir les observations et prévisions météorologiques.

Pour changer de carte: cliquez sur les boutons verts avec une croix noire pour zoomer, sur le bouton vert avec un tiret pour effectuer un zoom arrière, ou sur les flèches vertes pour les cartes adjacentes.


METAR-TAF: